sensor_id;sensor_type;location;lat;lon;timestamp;pressure;altitude;pressure_sealevel;temperature
39959;BMP280;25639;53.634;9.880;2023-03-05T00:02:06;150014.72;;;-9.57
39959;BMP280;25639;53.634;9.880;2023-03-05T00:04:31;150005.94;;;-9.61
39959;BMP280;25639;53.634;9.880;2023-03-05T00:06:57;150003.44;;;-9.62
39959;BMP280;25639;53.634;9.880;2023-03-05T00:09:22;150024.81;;;-9.53
39959;BMP280;25639;53.634;9.880;2023-03-05T00:11:47;150002.16;;;-9.62
39959;BMP280;25639;53.634;9.880;2023-03-05T00:14:13;149998.44;;;-9.64
39959;BMP280;25639;53.634;9.880;2023-03-05T00:16:38;149998.44;;;-9.64
39959;BMP280;25639;53.634;9.880;2023-03-05T00:19:04;150023.50;;;-9.53
39959;BMP280;25639;53.634;9.880;2023-03-05T00:21:38;150002.16;;;-9.62
39959;BMP280;25639;53.634;9.880;2023-03-05T00:24:07;149993.34;;;-9.66
39959;BMP280;25639;53.634;9.880;2023-03-05T00:26:35;149965.75;;;-9.77
39959;BMP280;25639;53.634;9.880;2023-03-05T00:29:01;149989.63;;;-9.67
39959;BMP280;25639;53.634;9.880;2023-03-05T00:31:29;149992.13;;;-9.66
39959;BMP280;25639;53.634;9.880;2023-03-05T00:33:59;149964.50;;;-9.78
39959;BMP280;25639;53.634;9.880;2023-03-05T00:36:26;149975.78;;;-9.73
39959;BMP280;25639;53.634;9.880;2023-03-05T00:38:53;149923.03;;;-9.94
39959;BMP280;25639;53.634;9.880;2023-03-05T00:41:19;149910.47;;;-10.00
39959;BMP280;25639;53.634;9.880;2023-03-05T00:43:44;149900.44;;;-10.04
39959;BMP280;25639;53.634;9.880;2023-03-05T00:46:09;149891.66;;;-10.07
39959;BMP280;25639;53.634;9.880;2023-03-05T00:48:35;149909.22;;;-10.00
39959;BMP280;25639;53.634;9.880;2023-03-05T00:51:00;149874.06;;;-10.14
39959;BMP280;25639;53.634;9.880;2023-03-05T00:53:25;149876.59;;;-10.13
39959;BMP280;25639;53.634;9.880;2023-03-05T00:55:51;149869.06;;;-10.17
39959;BMP280;25639;53.634;9.880;2023-03-05T00:58:16;149864.03;;;-10.19
39959;BMP280;25639;53.634;9.880;2023-03-05T01:00:41;149841.44;;;-10.28
39959;BMP280;25639;53.634;9.880;2023-03-05T01:03:07;149836.44;;;-10.30
39959;BMP280;25639;53.634;9.880;2023-03-05T01:05:32;149823.94;;;-10.35
39959;BMP280;25639;53.634;9.880;2023-03-05T01:07:58;149812.59;;;-10.40
39959;BMP280;25639;53.634;9.880;2023-03-05T01:10:24;149797.56;;;-10.46
39959;BMP280;25639;53.634;9.880;2023-03-05T01:12:53;149774.94;;;-10.55
39959;BMP280;25639;53.634;9.880;2023-03-05T01:15:19;149782.47;;;-10.52
39959;BMP280;25639;53.634;9.880;2023-03-05T01:17:44;149791.28;;;-10.48
39959;BMP280;25639;53.634;9.880;2023-03-05T01:20:13;149812.59;;;-10.40
39959;BMP280;25639;53.634;9.880;2023-03-05T01:22:39;149827.69;;;-10.33
39959;BMP280;25639;53.634;9.880;2023-03-05T01:25:05;149821.41;;;-10.36
39959;BMP280;25639;53.634;9.880;2023-03-05T01:27:31;149832.72;;;-10.31
39959;BMP280;25639;53.634;9.880;2023-03-05T01:29:56;149818.91;;;-10.37
39959;BMP280;25639;53.634;9.880;2023-03-05T01:32:21;149818.91;;;-10.37
39959;BMP280;25639;53.634;9.880;2023-03-05T01:34:47;149828.94;;;-10.33
39959;BMP280;25639;53.634;9.880;2023-03-05T01:37:12;149807.59;;;-10.42
39959;BMP280;25639;53.634;9.880;2023-03-05T01:39:37;149805.06;;;-10.43
39959;BMP280;25639;53.634;9.880;2023-03-05T01:42:03;149807.59;;;-10.42
39959;BMP280;25639;53.634;9.880;2023-03-05T01:44:29;149798.81;;;-10.45
39959;BMP280;25639;53.634;9.880;2023-03-05T01:46:55;149796.28;;;-10.46
39959;BMP280;25639;53.634;9.880;2023-03-05T01:49:25;149802.59;;;-10.44
39959;BMP280;25639;53.634;9.880;2023-03-05T01:54:28;149821.41;;;-10.36
39959;BMP280;25639;53.634;9.880;2023-03-05T01:56:58;149807.59;;;-10.42
39959;BMP280;25639;53.634;9.880;2023-03-05T01:59:26;149811.38;;;-10.40
39959;BMP280;25639;53.634;9.880;2023-03-05T02:01:55;149821.41;;;-10.36
39959;BMP280;25639;53.634;9.880;2023-03-05T02:04:23;149793.78;;;-10.47
39959;BMP280;25639;53.634;9.880;2023-03-05T02:06:51;149790.03;;;-10.49
39959;BMP280;25639;53.634;9.880;2023-03-05T02:09:16;149768.69;;;-10.58
39959;BMP280;25639;53.634;9.880;2023-03-05T02:11:42;149748.59;;;-10.66
39959;BMP280;25639;53.634;9.880;2023-03-05T02:14:08;149719.75;;;-10.78
39959;BMP280;25639;53.634;9.880;2023-03-05T02:16:34;149748.59;;;-10.66
39959;BMP280;25639;53.634;9.880;2023-03-05T02:19:04;149739.81;;;-10.69
39959;BMP280;25639;53.634;9.880;2023-03-05T02:21:42;149753.66;;;-10.64
39959;BMP280;25639;53.634;9.880;2023-03-05T02:24:32;149753.66;;;-10.64
39959;BMP280;25639;53.634;9.880;2023-03-05T02:26:58;149726.00;;;-10.75
39959;BMP280;25639;53.634;9.880;2023-03-05T02:29:25;149743.56;;;-10.68
39959;BMP280;25639;53.634;9.880;2023-03-05T02:31:53;149733.53;;;-10.72
39959;BMP280;25639;53.634;9.880;2023-03-05T02:34:19;149739.81;;;-10.69
39959;BMP280;25639;53.634;9.880;2023-03-05T02:36:44;149743.56;;;-10.68
39959;BMP280;25639;53.634;9.880;2023-03-05T02:39:10;149738.56;;;-10.70
39959;BMP280;25639;53.634;9.880;2023-03-05T02:41:36;149728.53;;;-10.74
39959;BMP280;25639;53.634;9.880;2023-03-05T02:44:01;149734.78;;;-10.71
39959;BMP280;25639;53.634;9.880;2023-03-05T02:46:26;149744.88;;;-10.67
39959;BMP280;25639;53.634;9.880;2023-03-05T02:48:51;149739.81;;;-10.69
39959;BMP280;25639;53.634;9.880;2023-03-05T02:51:17;149737.31;;;-10.70
39959;BMP280;25639;53.634;9.880;2023-03-05T02:53:43;149738.56;;;-10.70
39959;BMP280;25639;53.634;9.880;2023-03-05T02:56:08;149724.75;;;-10.76
39959;BMP280;25639;53.634;9.880;2023-03-05T02:58:33;149710.97;;;-10.81
39959;BMP280;25639;53.634;9.880;2023-03-05T03:00:58;149715.97;;;-10.79
39959;BMP280;25639;53.634;9.880;2023-03-05T03:03:24;149708.44;;;-10.82
39959;BMP280;25639;53.634;9.880;2023-03-05T03:05:49;149692.16;;;-10.89
39959;BMP280;25639;53.634;9.880;2023-03-05T03:08:14;149693.41;;;-10.88
39959;BMP280;25639;53.634;9.880;2023-03-05T03:10:40;149704.66;;;-10.84
39959;BMP280;25639;53.634;9.880;2023-03-05T03:13:05;149705.97;;;-10.83
39959;BMP280;25639;53.634;9.880;2023-03-05T03:15:30;149693.41;;;-10.88
39959;BMP280;25639;53.634;9.880;2023-03-05T03:17:56;149685.84;;;-10.91
39959;BMP280;25639;53.634;9.880;2023-03-05T03:20:21;149680.84;;;-10.94
39959;BMP280;25639;53.634;9.880;2023-03-05T03:22:47;149669.53;;;-10.98
39959;BMP280;25639;53.634;9.880;2023-03-05T03:25:17;149669.53;;;-10.98
39959;BMP280;25639;53.634;9.880;2023-03-05T03:27:44;149667.06;;;-10.99
39959;BMP280;25639;53.634;9.880;2023-03-05T03:30:10;149672.06;;;-10.97
39959;BMP280;25639;53.634;9.880;2023-03-05T03:32:36;149670.81;;;-10.98
39959;BMP280;25639;53.634;9.880;2023-03-05T03:35:02;149650.72;;;-11.06
39959;BMP280;25639;53.634;9.880;2023-03-05T03:37:27;149626.91;;;-11.16
39959;BMP280;25639;53.634;9.880;2023-03-05T03:39:53;149585.50;;;-11.33
39959;BMP280;25639;53.634;9.880;2023-03-05T03:42:19;149599.28;;;-11.27
39959;BMP280;25639;53.634;9.880;2023-03-05T03:44:45;149591.81;;;-11.30
39959;BMP280;25639;53.634;9.880;2023-03-05T03:47:11;149605.59;;;-11.24
39959;BMP280;25639;53.634;9.880;2023-03-05T03:49:36;149591.81;;;-11.30
39959;BMP280;25639;53.634;9.880;2023-03-05T03:52:02;149600.59;;;-11.26
39959;BMP280;25639;53.634;9.880;2023-03-05T03:54:27;149596.81;;;-11.28
39959;BMP280;25639;53.634;9.880;2023-03-05T03:56:52;149588.03;;;-11.32
39959;BMP280;25639;53.634;9.880;2023-03-05T03:59:18;149611.84;;;-11.22
39959;BMP280;25639;53.634;9.880;2023-03-05T04:01:43;149595.53;;;-11.28
39959;BMP280;25639;53.634;9.880;2023-03-05T04:04:10;149599.28;;;-11.27
39959;BMP280;25639;53.634;9.880;2023-03-05T04:06:36;149613.09;;;-11.21
39959;BMP280;25639;53.634;9.880;2023-03-05T04:09:01;149626.91;;;-11.16
39959;BMP280;25639;53.634;9.880;2023-03-05T04:11:27;149623.16;;;-11.17
39959;BMP280;25639;53.634;9.880;2023-03-05T04:13:52;149635.69;;;-11.12
39959;BMP280;25639;53.634;9.880;2023-03-05T04:16:17;149633.16;;;-11.13
39959;BMP280;25639;53.634;9.880;2023-03-05T04:18:44;149623.16;;;-11.17
39959;BMP280;25639;53.634;9.880;2023-03-05T04:21:09;149634.41;;;-11.13
39959;BMP280;25639;53.634;9.880;2023-03-05T04:23:35;149616.84;;;-11.20
39959;BMP280;25639;53.634;9.880;2023-03-05T04:26:00;149614.38;;;-11.21
39959;BMP280;25639;53.634;9.880;2023-03-05T04:28:25;149615.63;;;-11.20
39959;BMP280;25639;53.634;9.880;2023-03-05T04:30:51;149636.94;;;-11.12
39959;BMP280;25639;53.634;9.880;2023-03-05T04:33:17;149644.47;;;-11.08
39959;BMP280;25639;53.634;9.880;2023-03-05T04:35:43;149655.75;;;-11.04
39959;BMP280;25639;53.634;9.880;2023-03-05T04:38:08;149680.84;;;-10.94
39959;BMP280;25639;53.634;9.880;2023-03-05T04:40:34;149684.63;;;-10.92
39959;BMP280;25639;53.634;9.880;2023-03-05T04:43:00;149689.63;;;-10.90
39959;BMP280;25639;53.634;9.880;2023-03-05T04:45:25;149675.84;;;-10.96
39959;BMP280;25639;53.634;9.880;2023-03-05T04:47:50;149675.84;;;-10.96
39959;BMP280;25639;53.634;9.880;2023-03-05T04:50:16;149694.63;;;-10.88
39959;BMP280;25639;53.634;9.880;2023-03-05T04:52:43;149685.84;;;-10.91
39959;BMP280;25639;53.634;9.880;2023-03-05T04:55:11;149703.44;;;-10.84
39959;BMP280;25639;53.634;9.880;2023-03-05T04:57:37;149692.16;;;-10.89
39959;BMP280;25639;53.634;9.880;2023-03-05T05:00:08;149702.19;;;-10.85
39959;BMP280;25639;53.634;9.880;2023-03-05T05:02:38;149702.19;;;-10.85
39959;BMP280;25639;53.634;9.880;2023-03-05T05:05:03;149715.97;;;-10.79
39959;BMP280;25639;53.634;9.880;2023-03-05T05:07:29;149705.97;;;-10.83
39959;BMP280;25639;53.634;9.880;2023-03-05T05:09:56;149709.72;;;-10.82
39959;BMP280;25639;53.634;9.880;2023-03-05T05:12:22;149694.63;;;-10.88
39959;BMP280;25639;53.634;9.880;2023-03-05T05:14:47;149685.84;;;-10.91
39959;BMP280;25639;53.634;9.880;2023-03-05T05:17:12;149677.06;;;-10.95
39959;BMP280;25639;53.634;9.880;2023-03-05T05:19:37;149659.50;;;-11.02
39959;BMP280;25639;53.634;9.880;2023-03-05T05:22:03;149653.25;;;-11.05
39959;BMP280;25639;53.634;9.880;2023-03-05T05:24:28;149635.69;;;-11.12
39959;BMP280;25639;53.634;9.880;2023-03-05T05:26:54;149650.72;;;-11.06
39959;BMP280;25639;53.634;9.880;2023-03-05T05:29:20;149667.06;;;-10.99
39959;BMP280;25639;53.634;9.880;2023-03-05T05:31:45;149670.81;;;-10.98
39959;BMP280;25639;53.634;9.880;2023-03-05T05:34:10;149667.06;;;-10.99
39959;BMP280;25639;53.634;9.880;2023-03-05T05:36:36;149667.06;;;-10.99
39959;BMP280;25639;53.634;9.880;2023-03-05T05:39:01;149675.84;;;-10.96
39959;BMP280;25639;53.634;9.880;2023-03-05T05:41:26;149672.06;;;-10.97
39959;BMP280;25639;53.634;9.880;2023-03-05T05:43:51;149658.28;;;-11.03
39959;BMP280;25639;53.634;9.880;2023-03-05T05:46:18;149654.50;;;-11.04
39959;BMP280;25639;53.634;9.880;2023-03-05T05:48:44;149667.06;;;-10.99
39959;BMP280;25639;53.634;9.880;2023-03-05T05:51:13;149669.53;;;-10.98
39959;BMP280;25639;53.634;9.880;2023-03-05T05:53:42;149654.50;;;-11.04
39959;BMP280;25639;53.634;9.880;2023-03-05T05:56:09;149675.84;;;-10.96
39959;BMP280;25639;53.634;9.880;2023-03-05T05:58:36;149699.66;;;-10.86
39959;BMP280;25639;53.634;9.880;2023-03-05T06:01:12;149668.28;;;-10.99
39959;BMP280;25639;53.634;9.880;2023-03-05T06:03:37;149669.53;;;-10.98
39959;BMP280;25639;53.634;9.880;2023-03-05T06:06:07;149678.31;;;-10.95
39959;BMP280;25639;53.634;9.880;2023-03-05T06:08:33;149678.31;;;-10.95
39959;BMP280;25639;53.634;9.880;2023-03-05T06:10:58;149685.84;;;-10.91
39959;BMP280;25639;53.634;9.880;2023-03-05T06:13:23;149685.84;;;-10.91
39959;BMP280;25639;53.634;9.880;2023-03-05T06:15:56;149702.19;;;-10.85
39959;BMP280;25639;53.634;9.880;2023-03-05T06:18:22;149692.16;;;-10.89
39959;BMP280;25639;53.634;9.880;2023-03-05T06:20:56;149690.88;;;-10.89
39959;BMP280;25639;53.634;9.880;2023-03-05T06:23:22;149685.84;;;-10.91
39959;BMP280;25639;53.634;9.880;2023-03-05T06:25:47;149699.66;;;-10.86
39959;BMP280;25639;53.634;9.880;2023-03-05T06:28:12;149693.41;;;-10.88
39959;BMP280;25639;53.634;9.880;2023-03-05T06:30:37;149689.63;;;-10.90
39959;BMP280;25639;53.634;9.880;2023-03-05T06:33:03;149700.94;;;-10.85
39959;BMP280;25639;53.634;9.880;2023-03-05T06:35:28;149699.66;;;-10.86
39959;BMP280;25639;53.634;9.880;2023-03-05T06:37:53;149707.19;;;-10.83
39959;BMP280;25639;53.634;9.880;2023-03-05T06:40:19;149695.88;;;-10.87
39959;BMP280;25639;53.634;9.880;2023-03-05T06:42:44;149705.97;;;-10.83
39959;BMP280;25639;53.634;9.880;2023-03-05T06:45:09;149708.44;;;-10.82
39959;BMP280;25639;53.634;9.880;2023-03-05T06:47:35;149703.44;;;-10.84
39959;BMP280;25639;53.634;9.880;2023-03-05T06:50:00;149708.44;;;-10.82
39959;BMP280;25639;53.634;9.880;2023-03-05T06:52:25;149708.44;;;-10.82
39959;BMP280;25639;53.634;9.880;2023-03-05T06:54:50;149699.66;;;-10.86
39959;BMP280;25639;53.634;9.880;2023-03-05T06:57:19;149712.22;;;-10.81
39959;BMP280;25639;53.634;9.880;2023-03-05T06:59:44;149717.22;;;-10.79
39959;BMP280;25639;53.634;9.880;2023-03-05T07:02:10;149749.88;;;-10.65
39959;BMP280;25639;53.634;9.880;2023-03-05T07:04:37;149756.13;;;-10.63
39959;BMP280;25639;53.634;9.880;2023-03-05T07:07:02;149773.69;;;-10.56
39959;BMP280;25639;53.634;9.880;2023-03-05T07:09:28;149805.06;;;-10.43
39959;BMP280;25639;53.634;9.880;2023-03-05T07:11:54;149828.94;;;-10.33
39959;BMP280;25639;53.634;9.880;2023-03-05T07:14:20;149842.69;;;-10.27
39959;BMP280;25639;53.634;9.880;2023-03-05T07:16:45;149850.25;;;-10.24
39959;BMP280;25639;53.634;9.880;2023-03-05T07:19:10;149842.69;;;-10.27
39959;BMP280;25639;53.634;9.880;2023-03-05T07:21:35;149861.50;;;-10.20
39959;BMP280;25639;53.634;9.880;2023-03-05T07:24:02;149859.03;;;-10.21
39959;BMP280;25639;53.634;9.880;2023-03-05T07:26:28;149890.41;;;-10.08
39959;BMP280;25639;53.634;9.880;2023-03-05T07:28:55;149851.47;;;-10.24
39959;BMP280;25639;53.634;9.880;2023-03-05T07:31:22;149841.44;;;-10.28
39959;BMP280;25639;53.634;9.880;2023-03-05T07:33:51;149846.47;;;-10.26
39959;BMP280;25639;53.634;9.880;2023-03-05T07:36:17;149850.25;;;-10.24
39959;BMP280;25639;53.634;9.880;2023-03-05T07:38:43;149857.75;;;-10.21
39959;BMP280;25639;53.634;9.880;2023-03-05T07:41:11;149889.16;;;-10.08
39959;BMP280;25639;53.634;9.880;2023-03-05T07:43:38;149860.28;;;-10.20
39959;BMP280;25639;53.634;9.880;2023-03-05T07:46:05;149861.50;;;-10.20
39959;BMP280;25639;53.634;9.880;2023-03-05T07:48:32;149882.88;;;-10.11
39959;BMP280;25639;53.634;9.880;2023-03-05T07:51:11;149891.66;;;-10.07
39959;BMP280;25639;53.634;9.880;2023-03-05T07:53:39;149905.44;;;-10.02
39959;BMP280;25639;53.634;9.880;2023-03-05T07:56:04;149916.78;;;-9.97
39959;BMP280;25639;53.634;9.880;2023-03-05T07:58:30;149931.81;;;-9.91
39959;BMP280;25639;53.634;9.880;2023-03-05T08:00:55;149973.28;;;-9.74
39959;BMP280;25639;53.634;9.880;2023-03-05T08:03:20;150012.22;;;-9.58
39959;BMP280;25639;53.634;9.880;2023-03-05T08:05:46;150021.03;;;-9.54
39959;BMP280;25639;53.634;9.880;2023-03-05T08:08:11;150042.38;;;-9.46
39959;BMP280;25639;53.634;9.880;2023-03-05T08:10:37;150029.81;;;-9.51
39959;BMP280;25639;53.634;9.880;2023-03-05T08:13:03;150008.47;;;-9.60
39959;BMP280;25639;53.634;9.880;2023-03-05T08:15:28;149997.13;;;-9.64
39959;BMP280;25639;53.634;9.880;2023-03-05T08:17:55;150022.25;;;-9.54
39959;BMP280;25639;53.634;9.880;2023-03-05T08:20:21;150041.09;;;-9.46
39959;BMP280;25639;53.634;9.880;2023-03-05T08:22:46;150107.72;;;-9.19
39959;BMP280;25639;53.634;9.880;2023-03-05T08:25:12;150081.34;;;-9.30
39959;BMP280;25639;53.634;9.880;2023-03-05T08:27:44;150198.19;;;-8.82
39959;BMP280;25639;53.634;9.880;2023-03-05T08:30:13;150249.72;;;-8.61
39959;BMP280;25639;53.634;9.880;2023-03-05T08:32:39;150225.88;;;-8.71
39959;BMP280;25639;53.634;9.880;2023-03-05T08:35:05;150274.88;;;-8.51
39959;BMP280;25639;53.634;9.880;2023-03-05T08:37:31;150385.47;;;-8.06
39959;BMP280;25639;53.634;9.880;2023-03-05T08:39:56;150360.31;;;-8.16
39959;BMP280;25639;53.634;9.880;2023-03-05T08:42:22;150367.88;;;-8.13
39959;BMP280;25639;53.634;9.880;2023-03-05T08:44:48;150384.22;;;-8.06
39959;BMP280;25639;53.634;9.880;2023-03-05T08:47:13;150442.09;;;-7.82
39959;BMP280;25639;53.634;9.880;2023-03-05T08:49:38;150421.94;;;-7.91
39959;BMP280;25639;53.634;9.880;2023-03-05T08:52:04;150331.41;;;-8.28
39959;BMP280;25639;53.634;9.880;2023-03-05T08:54:29;150360.31;;;-8.16
39959;BMP280;25639;53.634;9.880;2023-03-05T08:56:55;150352.81;;;-8.19
39959;BMP280;25639;53.634;9.880;2023-03-05T08:59:20;150404.34;;;-7.98
39959;BMP280;25639;53.634;9.880;2023-03-05T09:01:45;150340.22;;;-8.24
39959;BMP280;25639;53.634;9.880;2023-03-05T09:04:10;150382.94;;;-8.07
39959;BMP280;25639;53.634;9.880;2023-03-05T09:06:36;150424.47;;;-7.90
39959;BMP280;25639;53.634;9.880;2023-03-05T09:09:05;150560.38;;;-7.34
39959;BMP280;25639;53.634;9.880;2023-03-05T09:11:31;150508.75;;;-7.55
39959;BMP280;25639;53.634;9.880;2023-03-05T09:14:00;150439.56;;;-7.83
39959;BMP280;25639;53.634;9.880;2023-03-05T09:16:26;150448.34;;;-7.80
39959;BMP280;25639;53.634;9.880;2023-03-05T09:18:51;150463.47;;;-7.74
39959;BMP280;25639;53.634;9.880;2023-03-05T09:21:16;150544.00;;;-7.41
39959;BMP280;25639;53.634;9.880;2023-03-05T09:23:42;150521.34;;;-7.50
39959;BMP280;25639;53.634;9.880;2023-03-05T09:26:10;150497.47;;;-7.60
39959;BMP280;25639;53.634;9.880;2023-03-05T09:28:36;150494.91;;;-7.61
39959;BMP280;25639;53.634;9.880;2023-03-05T09:31:06;150483.59;;;-7.66
39959;BMP280;25639;53.634;9.880;2023-03-05T09:33:32;150409.34;;;-7.96
39959;BMP280;25639;53.634;9.880;2023-03-05T09:35:58;150336.44;;;-8.26
39959;BMP280;25639;53.634;9.880;2023-03-05T09:38:23;150282.38;;;-8.48
39959;BMP280;25639;53.634;9.880;2023-03-05T09:43:33;150297.47;;;-8.41
39959;BMP280;25639;53.634;9.880;2023-03-05T09:46:18;150268.56;;;-8.53
39959;BMP280;25639;53.634;9.880;2023-03-05T09:48:52;150245.94;;;-8.63
39959;BMP280;25639;53.634;9.880;2023-03-05T09:51:22;150185.59;;;-8.87
39959;BMP280;25639;53.634;9.880;2023-03-05T09:53:56;150140.38;;;-9.06
39959;BMP280;25639;53.634;9.880;2023-03-05T09:56:34;150112.75;;;-9.17
39959;BMP280;25639;53.634;9.880;2023-03-05T09:59:22;150103.94;;;-9.21
39959;BMP280;25639;53.634;9.880;2023-03-05T10:01:55;150113.97;;;-9.16
39959;BMP280;25639;53.634;9.880;2023-03-05T10:04:26;150103.94;;;-9.21
39959;BMP280;25639;53.634;9.880;2023-03-05T10:09:51;150132.81;;;-9.09
39959;BMP280;25639;53.634;9.880;2023-03-05T10:12:36;150183.13;;;-8.88
39959;BMP280;25639;53.634;9.880;2023-03-05T10:15:35;150145.38;;;-9.04
39959;BMP280;25639;53.634;9.880;2023-03-05T10:18:13;150169.28;;;-8.94
39959;BMP280;25639;53.634;9.880;2023-03-05T10:20:54;150155.44;;;-8.99
39959;BMP280;25639;53.634;9.880;2023-03-05T10:23:30;150160.50;;;-8.97
39959;BMP280;25639;53.634;9.880;2023-03-05T10:26:03;150169.28;;;-8.94
39959;BMP280;25639;53.634;9.880;2023-03-05T10:28:43;150244.72;;;-8.63
39959;BMP280;25639;53.634;9.880;2023-03-05T10:34:54;150313.81;;;-8.35
39959;BMP280;25639;53.634;9.880;2023-03-05T10:40:39;150318.84;;;-8.33
39959;BMP280;25639;53.634;9.880;2023-03-05T10:45:54;150396.81;;;-8.01
39959;BMP280;25639;53.634;9.880;2023-03-05T10:48:43;150440.84;;;-7.83
39959;BMP280;25639;53.634;9.880;2023-03-05T10:51:22;150460.94;;;-7.75
39959;BMP280;25639;53.634;9.880;2023-03-05T10:53:58;150465.97;;;-7.73
39959;BMP280;25639;53.634;9.880;2023-03-05T10:56:27;150566.63;;;-7.32
39959;BMP280;25639;53.634;9.880;2023-03-05T10:58:53;150611.97;;;-7.13
39959;BMP280;25639;53.634;9.880;2023-03-05T11:01:23;150556.59;;;-7.36
39959;BMP280;25639;53.634;9.880;2023-03-05T11:03:56;150588.03;;;-7.23
39959;BMP280;25639;53.634;9.880;2023-03-05T11:06:40;150541.50;;;-7.42
39959;BMP280;25639;53.634;9.880;2023-03-05T11:09:18;150528.91;;;-7.47
39959;BMP280;25639;53.634;9.880;2023-03-05T11:12:01;150494.91;;;-7.61
39959;BMP280;25639;53.634;9.880;2023-03-05T11:14:29;150521.34;;;-7.50
39959;BMP280;25639;53.634;9.880;2023-03-05T11:17:00;150586.78;;;-7.23
39959;BMP280;25639;53.634;9.880;2023-03-05T11:19:31;150668.63;;;-6.90
39959;BMP280;25639;53.634;9.880;2023-03-05T11:22:22;150746.66;;;-6.58
39959;BMP280;25639;53.634;9.880;2023-03-05T11:25:15;150769.34;;;-6.49
39959;BMP280;25639;53.634;9.880;2023-03-05T11:27:45;150803.31;;;-6.35
39959;BMP280;25639;53.634;9.880;2023-03-05T11:30:26;150688.75;;;-6.82
39959;BMP280;25639;53.634;9.880;2023-03-05T11:33:16;150703.88;;;-6.76
39959;BMP280;25639;53.634;9.880;2023-03-05T11:35:43;150698.84;;;-6.78
39959;BMP280;25639;53.634;9.880;2023-03-05T11:40:46;150776.88;;;-6.46
39959;BMP280;25639;53.634;9.880;2023-03-05T11:43:16;150824.75;;;-6.26
39959;BMP280;25639;53.634;9.880;2023-03-05T11:45:42;150760.53;;;-6.53
39959;BMP280;25639;53.634;9.880;2023-03-05T11:48:16;150666.09;;;-6.91
39959;BMP280;25639;53.634;9.880;2023-03-05T11:50:44;150740.38;;;-6.61
39959;BMP280;25639;53.634;9.880;2023-03-05T11:53:18;150706.38;;;-6.75
39959;BMP280;25639;53.634;9.880;2023-03-05T11:55:50;150681.16;;;-6.85
39959;BMP280;25639;53.634;9.880;2023-03-05T11:58:26;150752.97;;;-6.56
39959;BMP280;25639;53.634;9.880;2023-03-05T12:00:52;150844.91;;;-6.18
39959;BMP280;25639;53.634;9.880;2023-03-05T12:03:21;150861.31;;;-6.11
39959;BMP280;25639;53.634;9.880;2023-03-05T12:06:03;150770.59;;;-6.48
39959;BMP280;25639;53.634;9.880;2023-03-05T12:08:36;150735.34;;;-6.63
39959;BMP280;25639;53.634;9.880;2023-03-05T12:11:20;150776.88;;;-6.46
39959;BMP280;25639;53.634;9.880;2023-03-05T12:13:51;150705.13;;;-6.75
39959;BMP280;25639;53.634;9.880;2023-03-05T12:16:37;150712.69;;;-6.72
39959;BMP280;25639;53.634;9.880;2023-03-05T12:19:36;150708.91;;;-6.74
39959;BMP280;25639;53.634;9.880;2023-03-05T12:22:21;150667.34;;;-6.91
39959;BMP280;25639;53.634;9.880;2023-03-05T12:24:48;150658.53;;;-6.94
39959;BMP280;25639;53.634;9.880;2023-03-05T12:27:16;150624.56;;;-7.08
39959;BMP280;25639;53.634;9.880;2023-03-05T12:29:55;150648.47;;;-6.98
39959;BMP280;25639;53.634;9.880;2023-03-05T12:39:56;150624.56;;;-7.08
39959;BMP280;25639;53.634;9.880;2023-03-05T12:47:34;150618.25;;;-7.11
39959;BMP280;25639;53.634;9.880;2023-03-05T12:50:00;150606.94;;;-7.15
39959;BMP280;25639;53.634;9.880;2023-03-05T12:52:28;150644.69;;;-7.00
39959;BMP280;25639;53.634;9.880;2023-03-05T12:57:37;150669.88;;;-6.90
39959;BMP280;25639;53.634;9.880;2023-03-05T13:00:26;150750.44;;;-6.57
39959;BMP280;25639;53.634;9.880;2023-03-05T13:03:08;150802.09;;;-6.36
39959;BMP280;25639;53.634;9.880;2023-03-05T13:05:37;150732.81;;;-6.64
39959;BMP280;25639;53.634;9.880;2023-03-05T13:08:28;150705.13;;;-6.75
39959;BMP280;25639;53.634;9.880;2023-03-05T13:11:10;150683.72;;;-6.84
39959;BMP280;25639;53.634;9.880;2023-03-05T13:13:42;150732.81;;;-6.64
39959;BMP280;25639;53.634;9.880;2023-03-05T13:16:17;150730.31;;;-6.65
39959;BMP280;25639;53.634;9.880;2023-03-05T13:18:46;150725.28;;;-6.67
39959;BMP280;25639;53.634;9.880;2023-03-05T13:21:13;150797.06;;;-6.38
39959;BMP280;25639;53.634;9.880;2023-03-05T13:23:51;150817.22;;;-6.29
39959;BMP280;25639;53.634;9.880;2023-03-05T13:26:35;150724.00;;;-6.67
39959;BMP280;25639;53.634;9.880;2023-03-05T13:31:34;150672.38;;;-6.88
39959;BMP280;25639;53.634;9.880;2023-03-05T13:34:19;150662.31;;;-6.93
39959;BMP280;25639;53.634;9.880;2023-03-05T13:37:35;150632.09;;;-7.05
39959;BMP280;25639;53.634;9.880;2023-03-05T13:39:55;150669.88;;;-6.90
39959;BMP280;25639;53.634;9.880;2023-03-05T13:42:26;150625.81;;;-7.07
39959;BMP280;25639;53.634;9.880;2023-03-05T13:45:20;150672.38;;;-6.88
39959;BMP280;25639;53.634;9.880;2023-03-05T13:47:56;150653.50;;;-6.96
39959;BMP280;25639;53.634;9.880;2023-03-05T13:50:25;150682.47;;;-6.84
39959;BMP280;25639;53.634;9.880;2023-03-05T13:52:51;150611.97;;;-7.13
39959;BMP280;25639;53.634;9.880;2023-03-05T13:55:18;150591.81;;;-7.21
39959;BMP280;25639;53.634;9.880;2023-03-05T13:57:48;150567.94;;;-7.31
39959;BMP280;25639;53.634;9.880;2023-03-05T14:00:34;150584.25;;;-7.24
39959;BMP280;25639;53.634;9.880;2023-03-05T14:03:17;150613.22;;;-7.13
39959;BMP280;25639;53.634;9.880;2023-03-05T14:05:45;150642.19;;;-7.01
39959;BMP280;25639;53.634;9.880;2023-03-05T14:08:19;150678.69;;;-6.86
39959;BMP280;25639;53.634;9.880;2023-03-05T14:10:46;150645.94;;;-6.99
39959;BMP280;25639;53.634;9.880;2023-03-05T14:13:23;150613.22;;;-7.13
39959;BMP280;25639;53.634;9.880;2023-03-05T14:16:07;150554.03;;;-7.37
39959;BMP280;25639;53.634;9.880;2023-03-05T14:18:34;150503.72;;;-7.57
39959;BMP280;25639;53.634;9.880;2023-03-05T14:21:09;150520.09;;;-7.51
39959;BMP280;25639;53.634;9.880;2023-03-05T14:23:46;150560.38;;;-7.34
39959;BMP280;25639;53.634;9.880;2023-03-05T14:26:32;150550.31;;;-7.38
39959;BMP280;25639;53.634;9.880;2023-03-05T14:31:44;150556.59;;;-7.36
39959;BMP280;25639;53.634;9.880;2023-03-05T14:34:20;150565.38;;;-7.32
39959;BMP280;25639;53.634;9.880;2023-03-05T14:36:52;150604.41;;;-7.16
39959;BMP280;25639;53.634;9.880;2023-03-05T14:39:32;150609.44;;;-7.14
39959;BMP280;25639;53.634;9.880;2023-03-05T14:44:55;150583.00;;;-7.25